Time;durP1;ratioP1;P1;durP2;ratioP2;P2;SDS_P1;SDS_P2;PMS_P1;PMS_P2;Temp;Humidity;BMP_temperature;BMP_pressure;BME280_temperature;BME280_humidity;BME280_pressure;Samples;Min_cycle;Max_cycle;Signal;HPM_P1;HPM_P2
2023/05/11 00:01:51;;;;;;;27.80;17.95;;;12.10;99.90;;;;;;5033116;28;20067;-72
2023/05/11 00:04:17;;;;;;;28.48;17.50;;;12.10;99.90;;;;;;5050699;28;20410;-73
2023/05/11 00:06:43;;;;;;;31.83;18.02;;;12.10;99.90;;;;;;5051777;28;20041;-72
2023/05/11 00:09:10;;;;;;;27.55;18.63;;;12.00;99.90;;;;;;5031710;28;20179;-72
2023/05/11 00:11:36;;;;;;;30.60;18.45;;;12.10;99.90;;;;;;5052171;28;20091;-72
2023/05/11 00:14:02;;;;;;;26.58;18.13;;;12.00;99.90;;;;;;5032510;28;20028;-72
2023/05/11 00:16:28;;;;;;;27.38;17.42;;;12.00;99.90;;;;;;5049788;28;20064;-72
2023/05/11 00:18:53;;;;;;;33.13;18.52;;;12.00;99.90;;;;;;5050137;28;20102;-72
2023/05/11 00:21:21;;;;;;;30.00;18.80;;;12.00;99.90;;;;;;5034158;28;20052;-72
2023/05/11 00:23:47;;;;;;;27.83;17.17;;;12.00;99.90;;;;;;5048399;28;20078;-72
2023/05/11 00:26:13;;;;;;;29.40;17.02;;;12.00;99.90;;;;;;5032638;28;20490;-72
2023/05/11 00:28:39;;;;;;;31.90;18.25;;;12.00;99.90;;;;;;5015897;28;20098;-73
2023/05/11 00:31:05;;;;;;;31.27;17.02;;;11.90;99.90;;;;;;5032147;28;20076;-72
2023/05/11 00:33:30;;;;;;;32.03;18.02;;;11.90;99.90;;;;;;5035498;28;20079;-73
2023/05/11 00:35:56;;;;;;;32.13;18.13;;;11.90;99.90;;;;;;5051319;28;20106;-73
2023/05/11 00:38:22;;;;;;;39.28;19.23;;;11.90;99.90;;;;;;5020674;28;20040;-73
2023/05/11 00:40:48;;;;;;;35.10;18.35;;;11.80;99.90;;;;;;5050154;28;20040;-72
2023/05/11 00:43:14;;;;;;;31.65;17.98;;;11.80;99.90;;;;;;5049013;28;20272;-73
2023/05/11 00:45:40;;;;;;;33.50;17.83;;;11.80;99.90;;;;;;5033587;28;20401;-73
2023/05/11 00:48:06;;;;;;;41.75;19.30;;;11.80;99.90;;;;;;5022125;28;20152;-71
2023/05/11 00:50:32;;;;;;;38.78;19.25;;;11.80;99.90;;;;;;5036707;28;20037;-72
2023/05/11 00:52:58;;;;;;;38.22;19.75;;;11.80;99.90;;;;;;5048126;28;20502;-72
2023/05/11 00:55:25;;;;;;;36.08;17.92;;;11.80;99.90;;;;;;5050380;28;20033;-72
2023/05/11 00:57:50;;;;;;;39.88;19.88;;;11.80;99.90;;;;;;5034278;28;20044;-72
2023/05/11 01:00:16;;;;;;;35.85;19.05;;;11.70;99.90;;;;;;5022989;28;20033;-72
2023/05/11 01:02:42;;;;;;;37.88;18.88;;;11.70;99.90;;;;;;5056447;28;20099;-72
2023/05/11 01:05:08;;;;;;;39.53;20.08;;;11.80;99.90;;;;;;5036947;28;20441;-72
2023/05/11 01:07:59;;;;;;;41.13;19.17;;;11.70;99.90;;;;;;5054569;28;20036;-73
2023/05/11 01:10:40;;;;;;;38.55;20.20;;;11.70;99.90;;;;;;5038951;28;20037;-71
2023/05/11 01:13:15;;;;;;;40.90;21.38;;;11.70;99.90;;;;;;5055331;28;20115;-72
2023/05/11 01:15:47;;;;;;;40.60;20.77;;;11.70;99.90;;;;;;5066337;28;20036;-72
2023/05/11 01:18:42;;;;;;;43.90;20.13;;;11.70;99.90;;;;;;5036062;28;20449;-72
2023/05/11 01:21:13;;;;;;;39.38;19.05;;;11.70;99.90;;;;;;5046835;28;20065;-72
2023/05/11 01:23:57;;;;;;;40.50;20.13;;;11.70;99.90;;;;;;5044272;28;20120;-72
2023/05/11 01:26:47;;;;;;;43.97;21.13;;;11.70;99.90;;;;;;5032062;28;20090;-72
2023/05/11 01:29:43;;;;;;;44.67;21.30;;;11.60;99.90;;;;;;5048285;28;20079;-71
2023/05/11 01:32:31;;;;;;;40.53;20.70;;;11.60;99.90;;;;;;5044315;28;20136;-72
2023/05/11 01:35:10;;;;;;;40.10;20.65;;;11.60;99.90;;;;;;5042920;28;20570;-72
2023/05/11 01:37:40;;;;;;;43.25;20.67;;;11.60;99.90;;;;;;5047099;28;20103;-73
2023/05/11 01:40:15;;;;;;;44.75;20.85;;;11.60;99.90;;;;;;5030546;28;20041;-72
2023/05/11 01:42:47;;;;;;;42.55;21.13;;;11.60;99.90;;;;;;5030793;28;20395;-72
2023/05/11 01:45:14;;;;;;;50.90;23.08;;;11.60;99.90;;;;;;5032409;28;20056;-72
2023/05/11 01:47:44;;;;;;;59.63;24.27;;;11.60;99.90;;;;;;5062088;28;20494;-72
2023/05/11 01:50:11;;;;;;;55.45;24.38;;;11.60;99.90;;;;;;5068014;28;20074;-72
2023/05/11 01:52:38;;;;;;;60.00;25.27;;;11.60;99.90;;;;;;5069464;28;20066;-72
2023/05/11 01:55:06;;;;;;;64.40;25.75;;;11.60;99.90;;;;;;5067779;28;20041;-72
2023/05/11 01:57:33;;;;;;;61.42;25.13;;;11.50;99.90;;;;;;5067486;28;20036;-72
2023/05/11 02:00:00;;;;;;;54.45;23.77;;;11.50;99.90;;;;;;5057301;28;20032;-72
2023/05/11 02:02:28;;;;;;;58.97;24.65;;;11.50;99.90;;;;;;5055950;28;20036;-72
2023/05/11 02:04:54;;;;;;;50.10;22.30;;;11.50;99.90;;;;;;5051188;28;20037;-72
2023/05/11 02:07:22;;;;;;;60.35;22.00;;;11.50;99.90;;;;;;5051247;28;20119;-72
2023/05/11 02:09:49;;;;;;;43.97;21.60;;;11.50;99.90;;;;;;5041313;28;20494;-73
2023/05/11 02:12:18;;;;;;;44.08;21.52;;;11.50;99.90;;;;;;5045458;28;20053;-71
2023/05/11 02:14:46;;;;;;;51.13;22.42;;;11.50;99.90;;;;;;5039047;28;20064;-72
2023/05/11 02:17:14;;;;;;;48.75;22.17;;;11.50;99.90;;;;;;5064726;28;20041;-72
2023/05/11 02:19:43;;;;;;;53.40;25.33;;;11.50;99.90;;;;;;5044537;28;20032;-70
2023/05/11 02:22:10;;;;;;;54.40;24.40;;;11.50;99.90;;;;;;5053607;28;20115;-71
2023/05/11 02:24:36;;;;;;;58.88;25.48;;;11.50;99.90;;;;;;5057040;28;20506;-72
2023/05/11 02:27:02;;;;;;;56.70;25.13;;;11.50;99.90;;;;;;5037364;28;20033;-72
2023/05/11 02:29:28;;;;;;;58.58;25.42;;;11.50;99.90;;;;;;5015077;28;20052;-71
2023/05/11 02:32:08;;;;;;;50.85;23.20;;;11.50;99.90;;;;;;5011865;28;20045;-71
2023/05/11 02:34:44;;;;;;;53.00;22.73;;;11.50;99.90;;;;;;5052652;28;20125;-71
2023/05/11 02:37:14;;;;;;;53.08;23.15;;;11.40;99.90;;;;;;5033144;28;20101;-71
2023/05/11 02:39:44;;;;;;;55.95;25.25;;;11.40;99.90;;;;;;5050916;28;20052;-70
2023/05/11 02:42:16;;;;;;;59.25;24.35;;;11.40;99.90;;;;;;5045757;28;20079;-71
2023/05/11 02:44:55;;;;;;;61.77;23.27;;;11.40;99.90;;;;;;5033486;28;20097;-71
2023/05/11 02:47:26;;;;;;;55.92;22.40;;;11.40;99.90;;;;;;5046086;28;20040;-71
2023/05/11 02:49:56;;;;;;;57.55;23.58;;;11.30;99.90;;;;;;5049654;28;20033;-71
2023/05/11 02:52:26;;;;;;;54.55;23.58;;;11.30;99.90;;;;;;5045418;28;20163;-71
2023/05/11 02:54:53;;;;;;;52.33;21.70;;;11.30;99.90;;;;;;5048297;28;20041;-71
2023/05/11 02:57:19;;;;;;;52.55;23.42;;;11.30;99.90;;;;;;5032353;28;20291;-71
2023/05/11 02:59:45;;;;;;;44.33;20.35;;;11.20;99.90;;;;;;5044368;28;20363;-69
2023/05/11 03:02:12;;;;;;;51.72;22.08;;;11.20;99.90;;;;;;5060223;28;20037;-71
2023/05/11 03:04:38;;;;;;;42.38;19.00;;;11.20;99.90;;;;;;5060242;28;20037;-72
2023/05/11 03:07:05;;;;;;;45.55;18.00;;;11.20;99.90;;;;;;5051589;28;20478;-71
2023/05/11 03:09:31;;;;;;;40.13;18.48;;;11.20;99.90;;;;;;5044002;28;20037;-70
2023/05/11 03:11:58;;;;;;;42.55;17.92;;;11.10;99.90;;;;;;5049981;28;20054;-70
2023/05/11 03:14:24;;;;;;;38.35;17.65;;;11.50;99.90;;;;;;5049229;28;20036;-70
2023/05/11 03:16:51;;;;;;;36.42;16.73;;;11.10;99.90;;;;;;5014071;28;20559;-70
2023/05/11 03:19:17;;;;;;;39.08;18.83;;;11.10;99.90;;;;;;5032936;28;20060;-71
2023/05/11 03:21:43;;;;;;;41.70;18.70;;;11.10;99.90;;;;;;5044746;28;20068;-70
2023/05/11 03:24:10;;;;;;;42.70;18.58;;;11.10;99.90;;;;;;5046222;28;20056;-70
2023/05/11 03:26:38;;;;;;;42.65;19.50;;;11.10;99.90;;;;;;5043902;28;20120;-71
2023/05/11 03:29:06;;;;;;;41.95;19.85;;;11.10;99.90;;;;;;5043651;28;20057;-71
2023/05/11 03:31:32;;;;;;;41.55;18.00;;;11.10;99.90;;;;;;5051293;28;20053;-70
2023/05/11 03:33:57;;;;;;;37.92;17.23;;;11.10;99.90;;;;;;5052105;28;20048;-71
2023/05/11 03:36:25;;;;;;;41.80;18.52;;;11.10;99.90;;;;;;5031832;28;20043;-71
2023/05/11 03:38:55;;;;;;;40.00;19.30;;;11.10;99.90;;;;;;5049506;28;20033;-71
2023/05/11 03:41:22;;;;;;;45.83;19.67;;;11.10;99.90;;;;;;5050722;28;20074;-72
2023/05/11 03:43:50;;;;;;;52.00;20.02;;;11.10;99.90;;;;;;5046660;28;20041;-71
2023/05/11 03:46:19;;;;;;;49.42;20.83;;;11.00;99.90;;;;;;5047189;28;20053;-72
2023/05/11 03:48:45;;;;;;;57.20;21.42;;;11.00;99.90;;;;;;5049334;28;20040;-71
2023/05/11 03:51:12;;;;;;;51.35;21.33;;;11.10;99.90;;;;;;5048441;28;20065;-71
2023/05/11 03:53:38;;;;;;;69.45;22.05;;;11.00;99.90;;;;;;5015417;28;20079;-71
2023/05/11 03:56:06;;;;;;;62.17;22.45;;;11.00;99.90;;;;;;5033490;28;20124;-70
2023/05/11 03:58:32;;;;;;;73.03;23.63;;;11.10;99.90;;;;;;5035846;28;20099;-71
2023/05/11 04:00:58;;;;;;;61.75;22.40;;;11.00;99.90;;;;;;5049960;28;20029;-71
2023/05/11 04:03:24;;;;;;;69.95;24.50;;;11.10;99.90;;;;;;5017325;28;20513;-71
2023/05/11 04:05:50;;;;;;;58.90;20.92;;;11.10;99.90;;;;;;5036095;28;20066;-71
2023/05/11 04:08:16;;;;;;;51.63;21.33;;;11.10;99.90;;;;;;5002835;28;20458;-71
2023/05/11 04:10:41;;;;;;;44.42;19.60;;;11.10;99.90;;;;;;5020120;28;20041;-72
2023/05/11 04:13:07;;;;;;;45.05;18.48;;;11.10;99.90;;;;;;5017316;28;20040;-72
2023/05/11 04:15:34;;;;;;;38.80;16.95;;;11.10;99.90;;;;;;5031631;28;20068;-71
2023/05/11 04:17:59;;;;;;;32.50;15.32;;;11.10;99.90;;;;;;5009829;28;20029;-72
2023/05/11 04:20:25;;;;;;;29.20;15.27;;;11.10;99.90;;;;;;5032240;28;20536;-72
2023/05/11 04:22:51;;;;;;;30.40;14.90;;;11.10;99.90;;;;;;5047466;28;20043;-71
2023/05/11 04:25:17;;;;;;;29.83;15.07;;;11.10;99.90;;;;;;5031589;28;20037;-72
2023/05/11 04:27:42;;;;;;;27.67;14.05;;;11.10;99.90;;;;;;5030808;28;20048;-70
2023/05/11 04:30:08;;;;;;;28.65;13.98;;;11.10;99.90;;;;;;5015697;28;20445;-72
2023/05/11 04:32:34;;;;;;;30.98;14.00;;;11.20;99.90;;;;;;5030697;28;20128;-71
2023/05/11 04:35:00;;;;;;;33.05;15.88;;;11.10;99.90;;;;;;4999492;28;20144;-71
2023/05/11 04:37:26;;;;;;;31.55;14.70;;;11.10;99.90;;;;;;5015366;28;20037;-72
2023/05/11 04:39:51;;;;;;;34.70;15.57;;;11.10;99.90;;;;;;5014499;28;20037;-72
2023/05/11 04:42:17;;;;;;;28.92;14.45;;;11.20;99.90;;;;;;5044536;28;21028;-71
2023/05/11 04:44:43;;;;;;;33.58;16.73;;;11.20;99.90;;;;;;5029829;28;20037;-71
2023/05/11 04:47:08;;;;;;;37.63;16.10;;;11.20;99.90;;;;;;5010772;28;20403;-72
2023/05/11 04:49:34;;;;;;;39.95;17.42;;;11.20;99.90;;;;;;5013954;28;20053;-72
2023/05/11 04:52:00;;;;;;;36.60;16.20;;;11.20;99.90;;;;;;5029454;28;20115;-72
2023/05/11 04:54:26;;;;;;;39.85;17.75;;;11.20;99.90;;;;;;5031436;28;20029;-72
2023/05/11 04:56:51;;;;;;;39.50;16.45;;;11.20;99.90;;;;;;5015214;28;20044;-71
2023/05/11 04:59:17;;;;;;;44.78;17.45;;;11.20;99.90;;;;;;5047915;28;20041;-72
2023/05/11 05:01:43;;;;;;;37.92;17.05;;;11.20;99.90;;;;;;5015046;28;20149;-71
2023/05/11 05:04:08;;;;;;;38.08;17.05;;;11.30;99.90;;;;;;5045293;28;20036;-71
2023/05/11 05:06:35;;;;;;;38.22;17.60;;;11.30;99.90;;;;;;5029569;28;20069;-71
2023/05/11 05:09:00;;;;;;;39.60;17.45;;;11.30;99.90;;;;;;5047312;28;20047;-71
2023/05/11 05:11:26;;;;;;;42.17;16.75;;;11.30;99.90;;;;;;5030080;28;20044;-72
2023/05/11 05:13:53;;;;;;;37.08;17.08;;;11.40;99.90;;;;;;5020746;28;20052;-72
2023/05/11 05:16:19;;;;;;;39.20;15.80;;;11.40;99.90;;;;;;5048421;28;20048;-72
2023/05/11 05:18:45;;;;;;;39.25;17.00;;;11.40;99.90;;;;;;5030602;28;20040;-72
2023/05/11 05:21:10;;;;;;;45.17;17.13;;;11.50;99.90;;;;;;5014349;28;20040;-72
2023/05/11 05:23:36;;;;;;;36.53;16.30;;;11.50;99.90;;;;;;5046036;28;20057;-72
2023/05/11 05:26:02;;;;;;;37.95;16.42;;;11.50;99.90;;;;;;5047880;28;20402;-71
2023/05/11 05:28:27;;;;;;;38.13;16.85;;;11.50;99.90;;;;;;5030497;28;20402;-69
2023/05/11 05:30:53;;;;;;;38.92;16.77;;;11.60;99.90;;;;;;5010612;28;20483;-71
2023/05/11 05:33:19;;;;;;;39.47;17.60;;;11.60;99.90;;;;;;5032221;28;20037;-71
2023/05/11 05:35:45;;;;;;;38.03;16.58;;;11.60;99.90;;;;;;5016635;28;20033;-72
2023/05/11 05:38:11;;;;;;;38.60;16.42;;;11.70;99.90;;;;;;5031233;28;20036;-71
2023/05/11 05:40:38;;;;;;;37.47;16.67;;;11.70;99.90;;;;;;5049165;28;20136;-71
2023/05/11 05:43:05;;;;;;;38.92;17.88;;;11.70;99.90;;;;;;5033945;28;20047;-71
2023/05/11 05:45:30;;;;;;;34.00;16.55;;;11.80;99.90;;;;;;5048818;28;20053;-72
2023/05/11 05:47:59;;;;;;;36.40;16.73;;;11.80;99.90;;;;;;5045414;28;20051;-71
2023/05/11 05:50:25;;;;;;;30.85;15.15;;;11.90;99.90;;;;;;5045888;28;20033;-71
2023/05/11 05:52:51;;;;;;;35.65;16.00;;;11.90;99.90;;;;;;5030766;28;20037;-72
2023/05/11 05:55:16;;;;;;;37.10;17.42;;;12.00;99.90;;;;;;5015037;28;20505;-71
2023/05/11 05:57:42;;;;;;;35.10;16.77;;;12.00;99.90;;;;;;5029042;28;20038;-71
2023/05/11 06:00:08;;;;;;;36.00;16.50;;;12.10;99.90;;;;;;5026614;28;20049;-71
2023/05/11 06:02:34;;;;;;;36.90;17.60;;;12.10;99.90;;;;;;5040554;28;20033;-71
2023/05/11 06:05:00;;;;;;;27.90;15.00;;;12.10;99.90;;;;;;5027985;28;20037;-72
2023/05/11 06:07:26;;;;;;;30.75;14.93;;;12.20;99.90;;;;;;5008238;28;20052;-71
2023/05/11 06:09:51;;;;;;;31.98;15.52;;;12.20;99.90;;;;;;5024214;28;20044;-71
2023/05/11 06:12:17;;;;;;;36.25;16.65;;;12.20;99.90;;;;;;5044271;28;20088;-72
2023/05/11 06:14:43;;;;;;;31.65;15.98;;;12.20;99.90;;;;;;5028840;28;20072;-71
2023/05/11 06:17:08;;;;;;;29.98;15.32;;;12.20;99.90;;;;;;5013259;28;20059;-72
2023/05/11 06:19:34;;;;;;;30.83;15.20;;;12.20;99.90;;;;;;5013700;28;20047;-71
2023/05/11 06:22:00;;;;;;;37.63;15.55;;;12.20;99.90;;;;;;5044635;28;20059;-71
2023/05/11 06:24:25;;;;;;;34.42;16.10;;;12.20;99.90;;;;;;5045010;28;20044;-71
2023/05/11 06:26:51;;;;;;;31.27;15.70;;;12.20;99.90;;;;;;5044613;28;20087;-68
2023/05/11 06:29:18;;;;;;;32.47;15.55;;;12.30;99.90;;;;;;5026755;28;20057;-71
2023/05/11 06:31:44;;;;;;;33.88;15.38;;;12.30;99.90;;;;;;5060753;28;20044;-71
2023/05/11 06:34:10;;;;;;;32.08;16.55;;;12.30;99.90;;;;;;5039900;28;20136;-71
2023/05/11 06:36:35;;;;;;;28.35;14.88;;;12.30;99.90;;;;;;5039385;28;20387;-71
2023/05/11 06:39:01;;;;;;;30.17;16.15;;;12.30;99.90;;;;;;5026340;28;20072;-70
2023/05/11 06:41:27;;;;;;;34.92;16.38;;;12.30;99.90;;;;;;5045150;28;20032;-71
2023/05/11 06:43:53;;;;;;;33.97;17.05;;;12.40;99.90;;;;;;5035412;28;20052;-72
2023/05/11 06:46:18;;;;;;;29.10;16.38;;;12.30;99.90;;;;;;5039530;28;20114;-71
2023/05/11 06:48:44;;;;;;;33.72;16.02;;;12.40;99.90;;;;;;5052676;28;20111;-71
2023/05/11 06:51:10;;;;;;;31.55;16.48;;;12.40;99.90;;;;;;5016555;28;20487;-71
2023/05/11 06:53:37;;;;;;;30.23;15.90;;;12.50;99.90;;;;;;5045390;28;20526;-71
2023/05/11 06:56:03;;;;;;;31.27;16.17;;;12.50;99.90;;;;;;5030094;28;20041;-72
2023/05/11 06:58:29;;;;;;;31.90;16.63;;;12.60;99.90;;;;;;5029454;28;20482;-71
2023/05/11 07:00:55;;;;;;;31.10;16.90;;;12.70;99.90;;;;;;5031533;28;20093;-72
2023/05/11 07:03:21;;;;;;;33.47;16.55;;;12.70;99.90;;;;;;5031056;28;20045;-71
2023/05/11 07:05:47;;;;;;;35.22;17.05;;;12.80;99.90;;;;;;5025598;28;20037;-72
2023/05/11 07:08:12;;;;;;;29.17;16.50;;;12.90;99.90;;;;;;5052468;28;20044;-72
2023/05/11 07:10:38;;;;;;;28.48;15.45;;;13.10;99.90;;;;;;5057070;28;20438;-71
2023/05/11 07:13:04;;;;;;;27.88;15.60;;;13.20;99.90;;;;;;5053050;28;20125;-71
2023/05/11 07:15:30;;;;;;;28.27;15.98;;;13.20;99.90;;;;;;5047215;28;20048;-70
2023/05/11 07:17:55;;;;;;;26.60;14.93;;;13.30;99.90;;;;;;5039144;28;20482;-71
2023/05/11 07:20:21;;;;;;;27.95;15.40;;;13.30;99.90;;;;;;5034199;28;20356;-71
2023/05/11 07:22:47;;;;;;;25.17;14.57;;;13.30;99.90;;;;;;5028289;28;20051;-70
2023/05/11 07:25:13;;;;;;;27.70;16.05;;;13.40;99.90;;;;;;5048260;28;20044;-71
2023/05/11 07:27:38;;;;;;;26.25;14.75;;;13.40;99.90;;;;;;5062746;28;20044;-71
2023/05/11 07:30:05;;;;;;;27.52;15.70;;;13.40;99.90;;;;;;5052918;28;20063;-71
2023/05/11 07:32:31;;;;;;;24.75;14.77;;;13.40;99.90;;;;;;5035978;28;20047;-71
2023/05/11 07:34:57;;;;;;;27.20;15.65;;;13.40;99.90;;;;;;5021425;28;20118;-71
2023/05/11 07:37:22;;;;;;;26.50;14.95;;;13.40;99.90;;;;;;5045491;28;20509;-71
2023/05/11 07:39:48;;;;;;;28.13;16.23;;;13.40;99.90;;;;;;5023397;28;20064;-72
2023/05/11 07:42:14;;;;;;;26.58;15.43;;;13.40;99.90;;;;;;5052359;28;20048;-71
2023/05/11 07:44:40;;;;;;;28.08;16.38;;;13.40;99.90;;;;;;5034608;28;20480;-71
2023/05/11 07:47:05;;;;;;;32.83;17.45;;;13.40;99.90;;;;;;5028520;28;20136;-71
2023/05/11 07:49:31;;;;;;;30.55;17.17;;;13.40;99.90;;;;;;5018910;28;20045;-71
2023/05/11 07:51:57;;;;;;;33.25;16.83;;;13.40;99.90;;;;;;5047226;28;20037;-71
2023/05/11 07:54:23;;;;;;;28.30;17.05;;;13.40;99.90;;;;;;5046309;28;20517;-70
2023/05/11 07:56:49;;;;;;;30.13;16.75;;;13.30;99.90;;;;;;5050547;28;20041;-71
2023/05/11 07:59:15;;;;;;;30.80;17.83;;;13.30;99.90;;;;;;5040979;28;20401;-72
2023/05/11 08:01:41;;;;;;;29.23;17.17;;;13.20;99.90;;;;;;5020985;28;20037;-71
2023/05/11 08:04:07;;;;;;;33.10;18.33;;;13.20;99.90;;;;;;5033891;28;20066;-72
2023/05/11 08:06:32;;;;;;;29.88;15.95;;;13.20;99.90;;;;;;5046522;28;20045;-71
2023/05/11 08:08:58;;;;;;;27.33;16.48;;;13.20;99.90;;;;;;5055363;28;20040;-72
2023/05/11 08:11:25;;;;;;;27.92;16.65;;;13.20;99.90;;;;;;5041421;28;20366;-72
2023/05/11 08:13:51;;;;;;;30.92;17.25;;;13.20;99.90;;;;;;5052095;28;20041;-72
2023/05/11 08:16:17;;;;;;;33.22;17.35;;;13.20;99.90;;;;;;5044690;28;20147;-72
2023/05/11 08:18:42;;;;;;;39.13;18.02;;;13.20;99.90;;;;;;5049770;28;20037;-74
2023/05/11 08:21:08;;;;;;;31.67;18.02;;;13.20;99.90;;;;;;5027608;28;20041;-73
2023/05/11 08:23:34;;;;;;;32.38;18.00;;;13.20;99.90;;;;;;5036047;28;20048;-73
2023/05/11 08:26:00;;;;;;;31.33;17.95;;;13.20;99.90;;;;;;5035913;28;20044;-73
2023/05/11 08:28:25;;;;;;;33.88;18.08;;;13.30;99.90;;;;;;5065043;28;20044;-72
2023/05/11 08:30:55;;;;;;;32.35;17.25;;;13.20;99.90;;;;;;5018182;28;20056;-73
2023/05/11 08:33:22;;;;;;;34.25;18.95;;;13.30;99.90;;;;;;5040822;28;20524;-73
2023/05/11 08:35:48;;;;;;;30.17;16.88;;;13.30;99.90;;;;;;5057038;28;20073;-73
2023/05/11 08:38:14;;;;;;;33.45;17.63;;;13.40;99.90;;;;;;5066217;28;20037;-72
2023/05/11 08:40:46;;;;;;;32.53;18.50;;;13.40;99.90;;;;;;5030516;28;20052;-72
2023/05/11 08:43:14;;;;;;;31.70;16.90;;;13.30;99.90;;;;;;5045756;28;20559;-72
2023/05/11 08:45:43;;;;;;;36.28;18.67;;;13.30;99.90;;;;;;5071656;28;20131;-73
2023/05/11 08:48:10;;;;;;;37.67;19.30;;;13.30;99.90;;;;;;5048512;28;20131;-73
2023/05/11 08:50:36;;;;;;;38.30;19.63;;;13.30;99.90;;;;;;5040814;28;20226;-72
2023/05/11 08:53:01;;;;;;;33.58;18.30;;;13.30;99.90;;;;;;5030295;28;20500;-72
2023/05/11 08:55:28;;;;;;;32.70;17.23;;;13.20;99.90;;;;;;5046825;28;20029;-71
2023/05/11 08:57:57;;;;;;;35.78;18.25;;;13.30;99.90;;;;;;5046660;28;20081;-72
2023/05/11 09:00:23;;;;;;;32.42;17.95;;;13.20;99.90;;;;;;5044922;28;20041;-72
2023/05/11 09:02:51;;;;;;;36.75;19.45;;;13.20;99.90;;;;;;5050519;28;20044;-72
2023/05/11 09:05:17;;;;;;;27.35;14.32;;;13.20;99.90;;;;;;5053041;28;20051;-72
2023/05/11 09:07:46;;;;;;;26.13;14.30;;;13.20;99.90;;;;;;5033629;28;20048;-72
2023/05/11 09:10:12;;;;;;;18.52;10.30;;;13.10;99.90;;;;;;5020683;28;20139;-72
2023/05/11 09:12:38;;;;;;;19.55;10.80;;;13.00;99.90;;;;;;5043925;28;20068;-72
2023/05/11 09:15:04;;;;;;;19.98;9.90;;;13.00;99.90;;;;;;5071708;28;20121;-72
2023/05/11 09:17:30;;;;;;;14.88;8.05;;;12.90;99.90;;;;;;5038010;28;20078;-72
2023/05/11 09:19:58;;;;;;;17.77;9.32;;;12.80;99.90;;;;;;5044275;28;20037;-72
2023/05/11 09:22:24;;;;;;;17.85;9.38;;;12.80;99.90;;;;;;5045925;28;20043;-73
2023/05/11 09:24:49;;;;;;;18.55;9.38;;;12.80;99.90;;;;;;5049174;28;20036;-72
2023/05/11 09:27:15;;;;;;;19.00;10.07;;;12.80;99.90;;;;;;5055439;28;20072;-73
2023/05/11 09:29:41;;;;;;;20.55;10.52;;;12.70;99.90;;;;;;5046867;28;20133;-73
2023/05/11 09:32:07;;;;;;;26.02;12.25;;;12.70;99.90;;;;;;5062532;28;20106;-73
2023/05/11 09:34:32;;;;;;;24.05;11.60;;;12.70;99.90;;;;;;5037442;28;20471;-72
2023/05/11 09:36:58;;;;;;;25.52;12.20;;;12.70;99.90;;;;;;5049732;28;20103;-72
2023/05/11 09:39:33;;;;;;;29.38;13.27;;;12.80;99.90;;;;;;5056434;28;20483;-72
2023/05/11 09:42:19;;;;;;;22.77;11.18;;;12.80;99.90;;;;;;5053214;28;20119;-71
2023/05/11 09:44:46;;;;;;;19.30;9.23;;;12.80;99.90;;;;;;5061957;28;20060;-72
2023/05/11 09:47:21;;;;;;;23.67;9.52;;;12.70;99.90;;;;;;5025628;28;20132;-71
2023/05/11 09:49:47;;;;;;;15.15;8.40;;;12.70;99.90;;;;;;5067871;28;20045;-72
2023/05/11 09:52:16;;;;;;;15.02;7.30;;;12.70;99.90;;;;;;5030879;28;20046;-72
2023/05/11 09:54:47;;;;;;;17.58;8.25;;;12.70;99.90;;;;;;5026729;28;20044;-72
2023/05/11 09:57:25;;;;;;;16.73;7.50;;;12.70;99.90;;;;;;5025875;28;20098;-70
2023/05/11 09:59:52;;;;;;;16.13;7.13;;;12.60;99.90;;;;;;5032263;28;20119;-71
2023/05/11 10:02:21;;;;;;;15.13;6.40;;;12.50;99.90;;;;;;5055422;28;20540;-69
2023/05/11 10:04:47;;;;;;;16.13;6.80;;;12.50;99.90;;;;;;5049464;28;20040;-71
2023/05/11 10:07:33;;;;;;;12.40;6.63;;;12.40;99.90;;;;;;5054650;28;20037;-70
2023/05/11 10:10:01;;;;;;;16.92;7.00;;;12.40;99.90;;;;;;5039581;28;20047;-70
2023/05/11 10:12:29;;;;;;;13.98;6.72;;;12.40;99.90;;;;;;5027002;28;20041;-71
2023/05/11 10:15:16;;;;;;;18.65;7.13;;;12.40;99.90;;;;;;5027304;28;20452;-71
2023/05/11 10:17:43;;;;;;;15.18;6.90;;;12.50;99.90;;;;;;5044380;28;20040;-69
2023/05/11 10:20:10;;;;;;;24.30;9.00;;;12.50;99.90;;;;;;5028766;28;20048;-70
2023/05/11 10:22:36;;;;;;;22.50;9.65;;;12.50;99.90;;;;;;5036605;28;20482;-70
2023/05/11 10:25:04;;;;;;;21.98;9.57;;;12.60;99.90;;;;;;5038944;28;20037;-70
2023/05/11 10:27:30;;;;;;;23.48;9.75;;;12.60;99.90;;;;;;5027129;28;20044;-70
2023/05/11 10:29:58;;;;;;;28.92;11.57;;;12.60;99.90;;;;;;5028722;28;20129;-70
2023/05/11 10:32:24;;;;;;;33.90;13.38;;;12.60;99.90;;;;;;5034375;28;20041;-70
2023/05/11 10:34:50;;;;;;;33.47;12.35;;;12.70;99.90;;;;;;5031300;28;20272;-71
2023/05/11 10:37:16;;;;;;;35.55;14.15;;;12.70;99.90;;;;;;4995757;28;20406;-71
2023/05/11 10:39:45;;;;;;;31.02;13.60;;;12.80;99.90;;;;;;5013808;28;20045;-72
2023/05/11 10:42:16;;;;;;;33.08;13.80;;;12.80;99.90;;;;;;5031079;28;20041;-70
2023/05/11 10:44:54;;;;;;;28.50;13.73;;;12.90;99.90;;;;;;5033570;28;20052;-72
2023/05/11 10:47:55;;;;;;;31.02;14.82;;;13.00;99.90;;;;;;5030385;28;20042;-71
2023/05/11 10:50:58;;;;;;;33.65;15.88;;;13.00;99.90;;;;;;5016170;28;20049;-70
2023/05/11 10:53:36;;;;;;;28.60;14.60;;;13.10;99.90;;;;;;5014407;28;20569;-71
2023/05/11 10:56:38;;;;;;;31.27;15.45;;;13.20;99.90;;;;;;5028337;28;20037;-71
2023/05/11 10:59:07;;;;;;;27.08;14.68;;;13.20;99.90;;;;;;5033609;28;20064;-72
2023/05/11 11:01:38;;;;;;;31.58;16.17;;;13.20;99.90;;;;;;5018460;28;20094;-71
2023/05/11 11:04:06;;;;;;;36.30;17.40;;;13.30;99.90;;;;;;5016156;28;20094;-71
2023/05/11 11:06:34;;;;;;;40.08;17.58;;;13.40;99.90;;;;;;5012670;28;20461;-71
2023/05/11 11:09:14;;;;;;;46.10;20.80;;;13.60;99.90;;;;;;5028026;28;20132;-71
2023/05/11 11:11:49;;;;;;;42.20;19.58;;;13.90;99.90;;;;;;5030383;28;20099;-71
2023/05/11 11:14:18;;;;;;;44.17;19.08;;;14.20;99.90;;;;;;5012988;28;20041;-71
2023/05/11 11:17:15;;;;;;;41.33;19.02;;;14.50;99.90;;;;;;5013434;28;20040;-71
2023/05/11 11:19:42;;;;;;;40.42;20.40;;;14.90;99.90;;;;;;5031082;28;20044;-69
2023/05/11 11:22:34;;;;;;;30.35;17.58;;;15.20;99.90;;;;;;5031179;28;20084;-70
2023/05/11 11:25:10;;;;;;;22.63;14.43;;;15.60;99.90;;;;;;5031517;28;20114;-70
2023/05/11 11:27:38;;;;;;;22.38;15.38;;;15.90;99.90;;;;;;5029185;28;20041;-70
2023/05/11 11:30:20;;;;;;;18.77;12.80;;;15.90;99.90;;;;;;5029608;28;20052;-70
2023/05/11 11:32:51;;;;;;;19.08;14.05;;;16.00;99.90;;;;;;5015096;28;21020;-69
2023/05/11 11:35:55;;;;;;;18.77;12.75;;;16.00;99.90;;;;;;5031255;28;20157;-69
2023/05/11 11:38:21;;;;;;;20.13;12.73;;;16.10;99.90;;;;;;4930898;28;20493;-68
2023/05/11 11:40:53;;;;;;;17.90;12.30;;;16.20;99.90;;;;;;4916503;28;20054;-69
2023/05/11 11:43:26;;;;;;;17.75;12.85;;;16.30;99.90;;;;;;4995591;28;20507;-71
2023/05/11 11:45:56;;;;;;;15.02;11.13;;;16.40;99.90;;;;;;5029755;28;20099;-70
2023/05/11 11:48:39;;;;;;;16.00;11.88;;;16.50;99.90;;;;;;5013456;28;20048;-70
2023/05/11 11:51:09;;;;;;;18.70;12.63;;;16.60;99.90;;;;;;5032234;28;20037;-71
2023/05/11 11:53:35;;;;;;;15.90;10.85;;;16.70;99.90;;;;;;5028932;28;20390;-71
2023/05/11 11:56:01;;;;;;;15.93;10.63;;;16.60;99.90;;;;;;5050110;28;20039;-71
2023/05/11 11:58:39;;;;;;;20.25;12.00;;;16.60;99.90;;;;;;5065883;28;20028;-71
2023/05/11 12:01:11;;;;;;;16.00;11.10;;;16.50;99.90;;;;;;5066844;28;20046;-71
2023/05/11 12:03:37;;;;;;;14.35;10.35;;;16.50;99.90;;;;;;5033476;28;20045;-71
2023/05/11 12:06:07;;;;;;;15.10;11.13;;;16.60;99.90;;;;;;5072401;28;20047;-71
2023/05/11 12:08:35;;;;;;;14.98;10.32;;;16.50;99.90;;;;;;5048228;28;20041;-71
2023/05/11 12:11:02;;;;;;;16.58;10.93;;;16.40;99.90;;;;;;5038718;28;20043;-71
2023/05/11 12:13:28;;;;;;;13.95;9.82;;;16.20;99.90;;;;;;5057392;28;20068;-71
2023/05/11 12:16:16;;;;;;;12.77;9.57;;;16.20;99.90;;;;;;5053021;28;20140;-72
2023/05/11 12:18:54;;;;;;;13.48;9.60;;;16.10;99.90;;;;;;5061443;28;20051;-71
2023/05/11 12:21:28;;;;;;;14.90;11.05;;;15.90;99.90;;;;;;5046336;28;20043;-71
2023/05/11 12:23:55;;;;;;;14.05;9.63;;;15.90;99.90;;;;;;5031060;28;20041;-71
2023/05/11 12:26:23;;;;;;;12.95;10.05;;;15.80;99.90;;;;;;5041986;28;20044;-71
2023/05/11 12:28:49;;;;;;;14.07;9.75;;;15.80;99.90;;;;;;5050854;28;20072;-71
2023/05/11 12:31:16;;;;;;;14.13;9.73;;;15.80;99.90;;;;;;5041210;28;20044;-71
2023/05/11 12:33:47;;;;;;;12.00;9.20;;;15.80;99.90;;;;;;5018237;28;20044;-71
2023/05/11 12:36:17;;;;;;;13.75;10.02;;;15.80;99.90;;;;;;5049683;28;20037;-71